Bookmark and Share
Track history (hours):
 

Hakozaki Maru

Last reported at 2014-Apr-18 07:33 UTC. Time now 2014-Apr-18 08:09 UTC.
Position N 34°42' E 135°15'.

Length 31 m; draft 2.5 m.

Type: Tug. MMSI: 431000322.

NotesDate/timePositionNaut miles runAvg speedWind from/ knotsBaromVisibWave heightAir tempDewpointWater temp
2014-Apr-18 07:33N 34°42' E 135°15'1 0.6
2014-Apr-18 06:33N 34°41' E 135°14'1 1.2
2014-Apr-18 05:33N 34°42' E 135°15'3 2.8
2014-Apr-18 04:33N 34°41' E 135°12'0 0.0
2014-Apr-18 03:33N 34°41' E 135°12'0 0.0
2014-Apr-18 02:33N 34°41' E 135°12'0 0.0
2014-Apr-18 01:33N 34°41' E 135°12'0 0.0
2014-Apr-18 00:33N 34°41' E 135°12'3 2.8
2014-Apr-17 23:33N 34°42' E 135°15'1 1.0
2014-Apr-17 22:33N 34°41' E 135°15'1 0.7
2014-Apr-17 21:33N 34°41' E 135°14'2 1.5
2014-Apr-17 20:33N 34°41' E 135°12'2 0.1
2014-Apr-16 10:03N 34°40' E 135°14'0 0.3
2014-Apr-16 09:33N 34°40' E 135°14'2 2.0
2014-Apr-16 08:33N 34°41' E 135°12'0 0.0
2014-Apr-16 07:33N 34°41' E 135°12'0 0.0
2014-Apr-16 06:33N 34°41' E 135°12'0 0.0
2014-Apr-16 05:33N 34°41' E 135°12'0 0.0
2014-Apr-16 04:33N 34°41' E 135°12'0 0.0
2014-Apr-16 03:33N 34°41' E 135°12'0 0.0
2014-Apr-16 02:33N 34°41' E 135°12'0 0.0
2014-Apr-16 01:33N 34°41' E 135°12'0 0.0
2014-Apr-16 00:33N 34°41' E 135°12'0 0.0
2014-Apr-15 23:33N 34°41' E 135°12'1 1.0
2014-Apr-15 22:33N 34°40' E 135°13'2 1.7
2014-Apr-15 21:33N 34°40' E 135°15'3 2.6
2014-Apr-15 20:33N 34°41' E 135°12'2 0.1
2014-Apr-15 05:34N 34°40' E 135°14'2 1.0
2014-Apr-15 03:34N 34°41' E 135°12'0 0.0
2014-Apr-15 02:34N 34°41' E 135°12'0 0.0
2014-Apr-15 01:34N 34°41' E 135°12'0 0.0
2014-Apr-15 00:34N 34°41' E 135°12'0 0.1
2014-Apr-14 23:33N 34°41' E 135°12'5 4.8
2014-Apr-14 22:34N 34°42' E 135°18'1 0.8
2014-Apr-14 21:34N 34°42' E 135°18'2 1.9
2014-Apr-14 20:34N 34°41' E 135°16'3 3.3
2014-Apr-14 19:34N 34°41' E 135°12'1 0.1
2014-Apr-14 08:34N 34°41' E 135°13'0 0.4
2014-Apr-14 07:33N 34°41' E 135°13'0 0.3
2014-Apr-14 06:33N 34°41' E 135°12'0 0.0
2014-Apr-14 05:33N 34°41' E 135°12'1 0.2
2014-Apr-13 22:33N 34°41' E 135°14'1 1.4
2014-Apr-13 21:34N 34°40' E 135°15'3 2.6
2014-Apr-13 20:33N 34°41' E 135°12'  
2014-Apr-11 10:33N 34°42' E 135°16'1 0.5
2014-Apr-11 09:33N 34°42' E 135°15'0 0.0
2014-Apr-11 08:33N 34°42' E 135°15'2 1.6
2014-Apr-11 07:33N 34°40' E 135°14'1 0.6
2014-Apr-11 06:33N 34°40' E 135°15'1 1.2
2014-Apr-11 05:33N 34°42' E 135°15'1 0.6
2014-Apr-11 04:33N 34°41' E 135°15'1 0.6
2014-Apr-11 03:33N 34°42' E 135°15'0 0.0
2014-Apr-11 02:33N 34°42' E 135°15'0 0.0
2014-Apr-11 01:33N 34°42' E 135°15'0 0.0
2014-Apr-11 00:33N 34°42' E 135°15'0 0.0
2014-Apr-10 23:33N 34°42' E 135°15'2 2.1
2014-Apr-10 22:33N 34°42' E 135°18'2 1.7
2014-Apr-10 21:33N 34°42' E 135°16'3 2.9
2014-Apr-10 20:33N 34°41' E 135°12'2 0.1
2014-Apr-10 05:33N 34°41' E 135°15'2 2.2
2014-Apr-10 04:33N 34°41' E 135°12'0 0.0
2014-Apr-10 03:33N 34°41' E 135°12'0 0.0
2014-Apr-10 02:33N 34°41' E 135°12'0 0.0
2014-Apr-10 01:33N 34°41' E 135°12'3 3.2
2014-Apr-10 00:33N 34°42' E 135°16'2 2.2
2014-Apr-09 23:33N 34°40' E 135°18'3 3.3
2014-Apr-09 22:33N 34°40' E 135°14'1 0.6
2014-Apr-09 21:33N 34°41' E 135°14'4 0.3
2014-Apr-09 07:33N 34°42' E 135°18'5 4.6
2014-Apr-09 06:33N 34°41' E 135°12'0 0.0
2014-Apr-09 05:33N 34°41' E 135°12'0 0.0
2014-Apr-09 04:33N 34°41' E 135°12'0 0.0
2014-Apr-09 03:33N 34°41' E 135°12'0 0.0
2014-Apr-09 02:33N 34°41' E 135°12'0 0.0
2014-Apr-09 01:33N 34°41' E 135°12'0 0.0
2014-Apr-09 00:33N 34°41' E 135°12'4 4.0
2014-Apr-08 23:33N 34°42' E 135°17'2 1.5
2014-Apr-08 22:33N 34°41' E 135°18'4 3.9
2014-Apr-08 21:33N 34°41' E 135°13'1 0.6
2014-Apr-08 20:33N 34°41' E 135°12'  

Dump ship's entire track history

sailing weather and tide predictions

Hakozaki Maru — JJ3662 — position and weather